TimeMDT,TemperatureF,Dew PointF,Humidity,Sea Level PressureIn,VisibilityMPH,Wind Direction,Wind SpeedMPH,Gust SpeedMPH,PrecipitationIn,Events,Conditions,WindDirDegrees,DateUTC
12:15 AM,60.8,51.8,72,30.30,10.0,East,4.6,-,N/A,,Clear,100,2013-07-13 06:15:00
12:35 AM,60.8,51.8,72,30.31,10.0,Calm,Calm,-,N/A,,Clear,0,2013-07-13 06:35:00
12:55 AM,62.6,51.8,68,30.31,10.0,Calm,Calm,-,N/A,,Clear,0,2013-07-13 06:55:00
1:15 AM,62.6,50.0,63,30.30,10.0,Calm,Calm,-,N/A,,Clear,0,2013-07-13 07:15:00
1:35 AM,62.6,51.8,68,30.30,10.0,Calm,Calm,-,N/A,,Clear,0,2013-07-13 07:35:00
1:55 AM,62.6,51.8,68,30.30,10.0,Calm,Calm,-,N/A,,Clear,0,2013-07-13 07:55:00
2:15 AM,60.8,51.8,72,30.30,10.0,NNW,3.5,-,N/A,,Clear,340,2013-07-13 08:15:00
2:35 AM,60.8,51.8,72,30.31,10.0,NNW,4.6,-,N/A,,Clear,330,2013-07-13 08:35:00
2:55 AM,60.8,51.8,72,30.30,10.0,North,3.5,-,N/A,,Clear,360,2013-07-13 08:55:00
3:15 AM,60.8,53.6,77,30.30,10.0,Calm,Calm,-,N/A,,Clear,0,2013-07-13 09:15:00
3:35 AM,60.8,53.6,77,30.30,10.0,Calm,Calm,-,N/A,,Clear,0,2013-07-13 09:35:00
3:55 AM,60.8,53.6,77,30.30,10.0,Calm,Calm,-,N/A,,Clear,0,2013-07-13 09:55:00
4:15 AM,59.0,51.8,77,30.31,10.0,Calm,Calm,-,N/A,,Clear,0,2013-07-13 10:15:00
4:35 AM,57.2,50.0,77,30.31,10.0,Calm,Calm,-,N/A,,Scattered Clouds,0,2013-07-13 10:35:00
4:55 AM,57.2,48.2,72,30.30,10.0,ENE,3.5,-,N/A,,Partly Cloudy,60,2013-07-13 10:55:00
5:15 AM,55.4,48.2,77,30.30,10.0,East,5.8,-,N/A,,Clear,100,2013-07-13 11:15:00
5:35 AM,53.6,48.2,82,30.31,10.0,Calm,Calm,-,N/A,,Clear,0,2013-07-13 11:35:00
5:55 AM,55.4,48.2,77,30.32,10.0,Calm,Calm,-,N/A,,Clear,0,2013-07-13 11:55:00
6:15 AM,55.4,48.2,77,30.32,10.0,ENE,4.6,-,N/A,,Clear,60,2013-07-13 12:15:00
6:35 AM,55.4,48.2,77,30.32,10.0,NE,4.6,-,N/A,,Clear,40,2013-07-13 12:35:00
6:55 AM,57.2,50.0,77,30.33,10.0,North,3.5,-,N/A,,Clear,360,2013-07-13 12:55:00
7:15 AM,60.8,51.8,72,30.33,10.0,North,3.5,-,N/A,,Clear,10,2013-07-13 13:15:00
7:35 AM,64.4,53.6,68,30.33,10.0,North,3.5,-,N/A,,Clear,360,2013-07-13 13:35:00
7:55 AM,66.2,53.6,64,30.33,10.0,NNW,5.8,-,N/A,,Clear,330,2013-07-13 13:55:00
8:15 AM,66.2,53.6,64,30.34,10.0,Calm,Calm,-,N/A,,Clear,0,2013-07-13 14:15:00
8:35 AM,68.0,53.6,60,30.34,10.0,Calm,Calm,-,N/A,,Mostly Cloudy,0,2013-07-13 14:35:00
8:55 AM,69.8,53.6,56,30.35,10.0,Calm,Calm,-,N/A,,Scattered Clouds,0,2013-07-13 14:55:00
9:15 AM,-9999,-9999,N/A,30.34,10.0,Calm,Calm,-,N/A,,Partly Cloudy,0,2013-07-13 15:15:00
9:35 AM,-9999,-9999,N/A,30.33,10.0,ESE,4.6,-,N/A,,Clear,110,2013-07-13 15:35:00
9:55 AM,-9999,-9999,N/A,30.33,10.0,Calm,Calm,-,N/A,,Clear,0,2013-07-13 15:55:00
10:15 AM,77.0,51.8,41,30.33,10.0,SSW,3.5,-,N/A,,Clear,200,2013-07-13 16:15:00
10:35 AM,77.0,51.8,41,30.33,10.0,WSW,6.9,-,N/A,,Clear,250,2013-07-13 16:35:00
10:55 AM,78.8,48.2,34,30.33,10.0,Calm,Calm,-,N/A,,Clear,0,2013-07-13 16:55:00
11:15 AM,80.6,51.8,37,30.32,10.0,SW,4.6,-,N/A,,Partly Cloudy,230,2013-07-13 17:15:00
11:35 AM,80.6,50.0,34,30.31,10.0,NW,3.5,-,N/A,,Partly Cloudy,320,2013-07-13 17:35:00
11:55 AM,82.4,50.0,32,30.31,10.0,Calm,Calm,-,N/A,Thunderstorm,Partly Cloudy,0,2013-07-13 17:55:00
12:15 PM,82.4,48.2,30,30.30,10.0,SSW,10.4,-,N/A,,Partly Cloudy,200,2013-07-13 18:15:00
12:35 PM,82.4,46.4,28,30.29,10.0,SW,10.4,18.4,N/A,,Clear,230,2013-07-13 18:35:00
12:55 PM,80.6,46.4,30,30.29,10.0,SW,10.4,-,N/A,,Clear,220,2013-07-13 18:55:00
1:15 PM,80.6,46.4,30,30.29,10.0,South,9.2,-,N/A,,Clear,180,2013-07-13 19:15:00
1:35 PM,80.6,48.2,32,30.28,10.0,ESE,8.1,-,N/A,,Clear,120,2013-07-13 19:35:00
1:55 PM,84.2,48.2,29,30.26,10.0,SSE,6.9,-,N/A,,Clear,160,2013-07-13 19:55:00
2:15 PM,84.2,48.2,29,30.26,10.0,SE,4.6,-,N/A,,Mostly Cloudy,140,2013-07-13 20:15:00
2:35 PM,84.2,46.4,27,30.26,10.0,SSE,17.3,26.5,N/A,,Overcast,160,2013-07-13 20:35:00
2:55 PM,-9999,-9999,N/A,30.27,10.0,SSE,10.4,-,N/A,,Overcast,160,2013-07-13 20:55:00
3:15 PM,-9999,-9999,N/A,30.29,9.0,SSW,12.7,18.4,0.04,Thunderstorm,Thunderstorm,200,2013-07-13 21:15:00
3:35 PM,66.2,55.4,68,30.30,10.0,SE,9.2,-,0.07,Thunderstorm,Thunderstorm,130,2013-07-13 21:35:00
3:55 PM,68.0,51.8,56,30.31,7.0,ESE,18.4,32.2,0.14,Thunderstorm,Thunderstorm,110,2013-07-13 21:55:00
4:15 PM,66.2,55.4,68,30.30,10.0,East,20.7,-,N/A,,Overcast,100,2013-07-13 22:15:00
4:35 PM,68.0,57.2,68,30.28,10.0,East,19.6,-,N/A,,Mostly Cloudy,90,2013-07-13 22:35:00
4:55 PM,66.2,55.4,68,30.29,10.0,ESE,16.1,20.7,N/A,,Scattered Clouds,120,2013-07-13 22:55:00
5:15 PM,68.0,57.2,68,30.28,10.0,SE,10.4,-,N/A,,Partly Cloudy,130,2013-07-13 23:15:00
5:35 PM,69.8,57.2,64,30.27,10.0,East,6.9,-,N/A,,Scattered Clouds,100,2013-07-13 23:35:00
5:55 PM,69.8,57.2,64,30.26,10.0,ESE,8.1,-,N/A,,Clear,120,2013-07-13 23:55:00
6:15 PM,73.4,57.2,57,30.26,10.0,SE,10.4,-,N/A,,Clear,130,2013-07-14 00:15:00
6:35 PM,75.2,57.2,53,30.25,10.0,SE,8.1,-,N/A,,Clear,130,2013-07-14 00:35:00
6:55 PM,75.2,55.4,50,30.25,10.0,East,5.8,-,N/A,,Clear,90,2013-07-14 00:55:00
7:15 PM,75.2,57.2,53,30.25,10.0,East,4.6,-,N/A,,Clear,90,2013-07-14 01:15:00
7:35 PM,77.0,55.4,47,30.25,10.0,East,3.5,-,N/A,,Clear,90,2013-07-14 01:35:00
7:55 PM,77.0,55.4,47,30.26,10.0,East,3.5,-,N/A,,Partly Cloudy,90,2013-07-14 01:55:00
8:15 PM,75.2,57.2,53,30.27,10.0,Calm,Calm,-,N/A,Thunderstorm,Scattered Clouds,0,2013-07-14 02:15:00
8:35 PM,73.4,55.4,53,30.28,10.0,Calm,Calm,-,N/A,,Mostly Cloudy,0,2013-07-14 02:35:00
8:55 PM,73.4,53.6,50,30.29,10.0,SW,6.9,-,N/A,,Overcast,220,2013-07-14 02:55:00
9:15 PM,71.6,53.6,53,30.30,10.0,WSW,6.9,-,N/A,Thunderstorm,Scattered Clouds,240,2013-07-14 03:15:00
9:35 PM,69.8,51.8,53,30.31,10.0,SSW,11.5,-,N/A,Thunderstorm,Mostly Cloudy,210,2013-07-14 03:35:00
9:55 PM,68.0,53.6,60,30.32,10.0,SW,10.4,-,N/A,,Overcast,230,2013-07-14 03:55:00
10:15 PM,68.0,53.6,60,30.33,10.0,Calm,Calm,-,N/A,,Mostly Cloudy,0,2013-07-14 04:15:00
10:35 PM,64.4,55.4,73,30.34,10.0,South,8.1,-,N/A,,Scattered Clouds,170,2013-07-14 04:35:00
10:55 PM,64.4,55.4,73,30.33,10.0,South,6.9,-,N/A,,Partly Cloudy,170,2013-07-14 04:55:00
11:15 PM,62.6,55.4,77,30.33,10.0,SE,8.1,-,N/A,,Clear,130,2013-07-14 05:15:00
11:35 PM,62.6,55.4,77,30.34,10.0,Calm,Calm,-,N/A,,Clear,0,2013-07-14 05:35:00
11:55 PM,62.6,55.4,77,30.34,10.0,SE,4.6,-,N/A,,Clear,140,2013-07-14 05:55:00